createdAt,value
2018-04-29T00:02:10.983Z,48.77
2018-04-29T00:04:36.995Z,48.74
2018-04-29T00:07:03.029Z,48.73
2018-04-29T00:09:29.007Z,48.71
2018-04-29T00:11:55.014Z,48.65
2018-04-29T00:14:21.037Z,48.65
2018-04-29T00:16:47.052Z,48.66
2018-04-29T00:19:13.060Z,48.66
2018-04-29T00:21:39.079Z,48.62
2018-04-29T00:24:05.077Z,48.58
2018-04-29T00:26:31.090Z,48.61
2018-04-29T00:28:57.097Z,48.56
2018-04-29T00:31:23.099Z,48.53
2018-04-29T00:33:49.148Z,48.52
2018-04-29T00:36:15.155Z,48.51
2018-04-29T00:38:41.195Z,48.50
2018-04-29T00:41:07.166Z,48.49
2018-04-29T00:43:33.172Z,48.49
2018-04-29T00:45:59.177Z,48.45
2018-04-29T00:48:25.187Z,48.46
2018-04-29T00:50:51.236Z,48.43
2018-04-29T00:53:17.260Z,48.42
2018-04-29T00:55:43.221Z,48.41
2018-04-29T00:58:09.224Z,48.39
2018-04-29T01:00:35.267Z,48.37
2018-04-29T01:03:01.256Z,48.35
2018-04-29T01:05:27.272Z,48.34
2018-04-29T01:07:53.280Z,48.32
2018-04-29T01:10:19.288Z,48.33
2018-04-29T01:12:45.324Z,48.30
2018-04-29T01:15:11.289Z,48.26
2018-04-29T01:17:37.289Z,48.25
2018-04-29T01:20:03.332Z,48.25
2018-04-29T01:22:29.338Z,48.22
2018-04-29T01:24:55.338Z,48.25
2018-04-29T01:27:21.341Z,48.22
2018-04-29T01:29:47.356Z,48.21
2018-04-29T01:32:13.359Z,48.21
2018-04-29T01:34:39.385Z,48.16
2018-04-29T01:37:05.397Z,48.15
2018-04-29T01:39:31.420Z,48.14
2018-04-29T01:41:57.454Z,48.12
2018-04-29T01:44:23.490Z,48.11
2018-04-29T01:46:49.500Z,48.07
2018-04-29T01:49:15.479Z,48.06
2018-04-29T01:51:41.501Z,48.05
2018-04-29T01:54:07.499Z,48.01
2018-04-29T01:56:33.504Z,47.99
2018-04-29T01:58:59.509Z,47.97
2018-04-29T02:01:25.521Z,47.98
2018-04-29T02:03:51.526Z,47.96
2018-04-29T02:06:17.530Z,47.98
2018-04-29T02:08:43.529Z,47.94
2018-04-29T02:11:09.551Z,47.92
2018-04-29T02:13:35.591Z,47.90
2018-04-29T02:16:01.568Z,47.89
2018-04-29T02:18:27.572Z,47.85
2018-04-29T02:20:53.575Z,47.87
2018-04-29T02:23:19.581Z,47.83
2018-04-29T02:25:45.591Z,47.82
2018-04-29T02:28:11.597Z,47.80
2018-04-29T02:30:37.598Z,47.77
2018-04-29T02:33:03.715Z,47.75
2018-04-29T02:35:29.715Z,47.72
2018-04-29T02:37:55.738Z,47.70
2018-04-29T02:40:21.750Z,47.71
2018-04-29T02:42:47.758Z,47.69
2018-04-29T02:45:13.766Z,47.69
2018-04-29T02:47:39.809Z,47.66
2018-04-29T02:50:05.822Z,47.62
2018-04-29T02:52:31.827Z,47.59
2018-04-29T02:54:57.835Z,47.55
2018-04-29T02:57:23.882Z,47.54
2018-04-29T02:59:49.878Z,47.52
2018-04-29T03:02:15.893Z,47.51
2018-04-29T03:04:41.891Z,47.50
2018-04-29T03:07:07.909Z,47.48
2018-04-29T03:09:33.910Z,47.45
2018-04-29T03:11:59.920Z,47.44
2018-04-29T03:14:25.954Z,47.39
2018-04-29T03:16:51.926Z,47.38
2018-04-29T03:19:17.942Z,47.36
2018-04-29T03:21:43.949Z,47.34
2018-04-29T03:24:09.966Z,47.31
2018-04-29T03:26:35.981Z,47.29
2018-04-29T03:29:02.080Z,47.27
2018-04-29T03:31:28.098Z,47.26
2018-04-29T03:33:54.138Z,47.23
2018-04-29T03:36:20.109Z,47.22
2018-04-29T03:38:46.127Z,47.17
2018-04-29T03:41:12.135Z,47.15
2018-04-29T03:43:38.144Z,47.14
2018-04-29T03:46:04.182Z,47.12
2018-04-29T03:48:30.191Z,47.09
2018-04-29T03:50:56.229Z,47.05
2018-04-29T03:53:22.198Z,47.04
2018-04-29T03:55:48.250Z,47.03
2018-04-29T03:58:14.294Z,47.01
2018-04-29T04:00:40.265Z,46.98
2018-04-29T04:03:06.293Z,46.97
2018-04-29T04:05:32.302Z,46.93
2018-04-29T04:07:58.312Z,46.95
2018-04-29T04:10:24.328Z,46.96
2018-04-29T04:12:50.369Z,46.92
2018-04-29T04:15:16.415Z,46.87
2018-04-29T04:17:42.400Z,46.87
2018-04-29T04:20:08.402Z,46.85
2018-04-29T04:22:34.409Z,46.83
2018-04-29T04:25:00.461Z,46.84
2018-04-29T04:27:26.510Z,46.87
2018-04-29T04:29:52.478Z,46.98
2018-04-29T04:32:18.487Z,47.00
2018-04-29T04:34:44.522Z,47.06
2018-04-29T04:37:10.515Z,47.07
2018-04-29T04:39:36.509Z,47.11
2018-04-29T04:42:02.529Z,47.14
2018-04-29T04:44:28.551Z,47.16
2018-04-29T04:46:54.596Z,47.12
2018-04-29T04:49:20.564Z,47.12
2018-04-29T04:51:46.574Z,47.13
2018-04-29T04:54:12.609Z,47.12
2018-04-29T04:56:38.576Z,47.12
2018-04-29T04:59:04.622Z,47.16
2018-04-29T05:01:30.603Z,47.21
2018-04-29T05:03:56.603Z,47.26
2018-04-29T05:06:22.642Z,47.27
2018-04-29T05:08:48.618Z,47.35
2018-04-29T05:11:14.626Z,47.31
2018-04-29T05:13:40.656Z,47.26
2018-04-29T05:16:06.684Z,47.29
2018-04-29T05:18:32.658Z,47.29
2018-04-29T05:20:58.695Z,47.29
2018-04-29T05:23:24.675Z,47.33
2018-04-29T05:25:50.680Z,47.31
2018-04-29T05:28:16.698Z,47.27
2018-04-29T05:30:42.693Z,47.29
2018-04-29T05:33:08.738Z,47.28
2018-04-29T05:35:34.740Z,47.30
2018-04-29T05:38:00.790Z,47.36
2018-04-29T05:40:26.799Z,47.27
2018-04-29T05:42:52.806Z,47.25
2018-04-29T05:45:18.806Z,47.27
2018-04-29T05:47:44.832Z,47.28
2018-04-29T05:50:10.838Z,47.28
2018-04-29T05:52:36.850Z,47.40
2018-04-29T05:55:02.854Z,47.52
2018-04-29T05:57:28.898Z,47.60
2018-04-29T05:59:54.910Z,47.64
2018-04-29T06:02:20.906Z,47.78
2018-04-29T06:04:46.923Z,47.81
2018-04-29T06:07:12.946Z,47.75
2018-04-29T06:09:38.953Z,47.74
2018-04-29T06:12:04.962Z,47.76
2018-04-29T06:14:30.972Z,47.69
2018-04-29T06:16:57.195Z,47.64
2018-04-29T06:19:23.249Z,47.68
2018-04-29T06:21:49.628Z,47.67
2018-04-29T06:24:15.644Z,47.73
2018-04-29T06:26:41.674Z,47.63
2018-04-29T06:29:07.675Z,47.75
2018-04-29T06:31:33.697Z,47.63
2018-04-29T06:33:59.718Z,47.79
2018-04-29T06:36:25.864Z,47.64
2018-04-29T06:38:51.893Z,47.72
2018-04-29T06:41:17.887Z,47.72
2018-04-29T06:43:43.863Z,47.76
2018-04-29T06:46:09.881Z,47.84
2018-04-29T06:48:35.920Z,47.77
2018-04-29T06:51:01.913Z,47.82
2018-04-29T06:53:28.043Z,47.99
2018-04-29T06:55:54.011Z,47.92
2018-04-29T06:58:20.072Z,48.00
2018-04-29T07:00:46.114Z,48.06
2018-04-29T07:03:12.138Z,47.95
2018-04-29T07:05:38.152Z,48.13
2018-04-29T07:08:04.261Z,48.55
2018-04-29T07:10:30.186Z,49.44
2018-04-29T07:12:56.181Z,49.68
2018-04-29T07:15:22.235Z,49.68
2018-04-29T07:17:48.207Z,49.99
2018-04-29T07:20:20.693Z,49.60
2018-04-29T07:22:46.703Z,49.70
2018-04-29T07:25:13.390Z,49.37
2018-04-29T07:27:39.437Z,50.74
2018-04-29T07:30:05.437Z,50.23
2018-04-29T07:32:32.010Z,49.75
2018-04-29T07:34:58.013Z,49.93
2018-04-29T07:37:23.995Z,49.56
2018-04-29T07:39:50.027Z,49.57
2018-04-29T07:42:16.028Z,48.99
2018-04-29T07:44:42.097Z,49.31
2018-04-29T07:47:08.189Z,49.55
2018-04-29T07:49:34.162Z,49.67
2018-04-29T07:52:00.185Z,50.38
2018-04-29T07:54:26.191Z,50.30
2018-04-29T07:56:52.261Z,49.96
2018-04-29T07:59:18.386Z,50.00
2018-04-29T08:01:44.423Z,49.78
2018-04-29T08:04:10.447Z,49.41
2018-04-29T08:06:36.483Z,49.91
2018-04-29T08:09:02.490Z,49.86
2018-04-29T08:11:28.502Z,49.26
2018-04-29T08:13:54.511Z,49.67
2018-04-29T08:16:20.517Z,49.39
2018-04-29T08:18:46.530Z,49.57
2018-04-29T08:21:12.537Z,49.46
2018-04-29T08:23:38.558Z,49.26
2018-04-29T08:26:04.565Z,49.09
2018-04-29T08:28:30.571Z,49.29
2018-04-29T08:30:56.578Z,48.94
2018-04-29T08:33:22.619Z,48.97
2018-04-29T08:35:48.636Z,49.14
2018-04-29T08:38:14.980Z,49.09
2018-04-29T08:40:40.961Z,49.08
2018-04-29T08:43:06.989Z,48.94
2018-04-29T08:45:33.001Z,48.98
2018-04-29T08:47:58.996Z,49.03
2018-04-29T08:50:25.098Z,48.69
2018-04-29T08:52:51.119Z,48.66
2018-04-29T08:55:17.201Z,48.68
2018-04-29T08:57:43.201Z,48.79
2018-04-29T09:00:09.207Z,48.73
2018-04-29T09:02:35.213Z,48.70
2018-04-29T09:05:01.392Z,48.75
2018-04-29T09:07:27.425Z,48.58
2018-04-29T09:09:53.437Z,48.63
2018-04-29T09:12:19.444Z,48.52
2018-04-29T09:14:45.550Z,48.65
2018-04-29T09:17:11.560Z,48.51
2018-04-29T09:19:37.609Z,48.67
2018-04-29T09:22:03.614Z,49.54
2018-04-29T09:24:29.777Z,49.63
2018-04-29T09:26:56.021Z,49.63
2018-04-29T09:29:22.340Z,49.33
2018-04-29T09:31:48.927Z,49.81
2018-04-29T09:34:14.973Z,49.78
2018-04-29T09:36:40.951Z,49.76
2018-04-29T09:39:06.956Z,49.62
2018-04-29T09:41:32.974Z,49.35
2018-04-29T09:43:58.993Z,49.28
2018-04-29T09:46:24.998Z,49.41
2018-04-29T09:48:51.018Z,49.37
2018-04-29T09:51:17.023Z,48.93
2018-04-29T09:53:43.050Z,49.19
2018-04-29T09:56:09.151Z,49.31
2018-04-29T09:58:35.131Z,50.18
2018-04-29T10:01:01.160Z,49.89
2018-04-29T10:03:27.210Z,49.20
2018-04-29T10:05:53.406Z,49.50
2018-04-29T10:08:19.425Z,49.29
2018-04-29T10:10:45.459Z,49.08
2018-04-29T10:13:11.997Z,49.09
2018-04-29T10:15:37.979Z,49.48
2018-04-29T10:18:04.150Z,49.28
2018-04-29T10:20:30.155Z,49.06
2018-04-29T10:22:56.397Z,49.09
2018-04-29T10:25:22.565Z,49.41
2018-04-29T10:27:48.583Z,49.59
2018-04-29T10:30:14.625Z,49.25
2018-04-29T10:32:40.708Z,48.90
2018-04-29T10:35:06.688Z,49.85
2018-04-29T10:37:32.696Z,49.10
2018-04-29T10:40:01.235Z,49.12
2018-04-29T10:42:27.239Z,48.36
2018-04-29T10:44:53.283Z,47.84
2018-04-29T10:47:19.285Z,47.18
2018-04-29T10:49:45.331Z,47.99
2018-04-29T10:52:11.346Z,47.72
2018-04-29T10:54:37.356Z,47.25
2018-04-29T10:57:03.353Z,47.30
2018-04-29T10:59:29.380Z,47.24
2018-04-29T11:01:56.144Z,46.80
2018-04-29T11:04:22.469Z,46.65
2018-04-29T11:06:48.384Z,46.54
2018-04-29T11:09:14.409Z,46.62
2018-04-29T11:11:40.438Z,46.43
2018-04-29T11:14:06.424Z,46.32
2018-04-29T11:16:32.434Z,46.40
2018-04-29T11:18:58.798Z,46.40
2018-04-29T11:21:24.828Z,46.43
2018-04-29T11:23:51.115Z,46.42
2018-04-29T11:26:17.156Z,46.44
2018-04-29T11:28:43.274Z,46.39
2018-04-29T11:31:09.289Z,46.35
2018-04-29T11:33:35.308Z,46.37
2018-04-29T11:36:01.342Z,46.33
2018-04-29T11:38:27.463Z,46.36
2018-04-29T11:40:53.602Z,46.36
2018-04-29T11:43:19.646Z,46.36
2018-04-29T11:45:45.891Z,46.33
2018-04-29T11:48:11.838Z,46.33
2018-04-29T11:50:37.879Z,46.30
2018-04-29T11:53:03.876Z,46.30
2018-04-29T11:55:30.066Z,46.31
2018-04-29T11:57:56.050Z,46.31
2018-04-29T12:00:22.099Z,46.30
2018-04-29T12:02:48.106Z,46.21
2018-04-29T12:05:14.143Z,46.02
2018-04-29T12:07:40.120Z,46.05
2018-04-29T12:10:06.164Z,45.78
2018-04-29T12:12:32.194Z,45.85
2018-04-29T12:14:58.199Z,45.87
2018-04-29T12:17:24.228Z,45.80
2018-04-29T12:19:50.292Z,45.89
2018-04-29T12:22:16.315Z,45.97
2018-04-29T12:24:42.365Z,46.17
2018-04-29T12:27:08.400Z,46.12
2018-04-29T12:29:34.409Z,46.13
2018-04-29T12:32:00.421Z,46.01
2018-04-29T12:34:26.477Z,46.13
2018-04-29T12:36:52.485Z,46.22
2018-04-29T12:39:18.550Z,46.26
2018-04-29T12:41:44.578Z,46.34
2018-04-29T12:44:10.588Z,46.35
2018-04-29T12:46:36.947Z,46.31
2018-04-29T12:49:02.975Z,46.26
2018-04-29T12:51:28.970Z,46.13
2018-04-29T12:53:54.980Z,46.01
2018-04-29T12:56:21.000Z,45.98
2018-04-29T12:58:47.025Z,45.96
2018-04-29T13:01:13.030Z,45.94
2018-04-29T13:03:39.053Z,45.95
2018-04-29T13:06:05.066Z,45.91
2018-04-29T13:08:31.098Z,45.72
2018-04-29T13:10:57.160Z,45.64
2018-04-29T13:13:23.163Z,45.64
2018-04-29T13:15:49.174Z,45.63
2018-04-29T13:18:15.217Z,45.52
2018-04-29T13:20:41.225Z,45.57
2018-04-29T13:23:07.229Z,45.78
2018-04-29T13:25:33.260Z,45.73
2018-04-29T13:27:59.284Z,45.74
2018-04-29T13:30:25.288Z,45.73
2018-04-29T13:32:51.336Z,45.76
2018-04-29T13:35:17.373Z,45.72
2018-04-29T13:37:43.382Z,45.66
2018-04-29T13:40:09.406Z,45.63
2018-04-29T13:42:35.438Z,45.73
2018-04-29T13:45:01.445Z,45.68
2018-04-29T13:47:27.457Z,45.59
2018-04-29T13:49:53.470Z,45.82
2018-04-29T13:52:19.561Z,45.72
2018-04-29T13:54:45.537Z,45.92
2018-04-29T13:57:11.543Z,46.09
2018-04-29T13:59:37.596Z,46.11
2018-04-29T14:02:03.651Z,46.13
2018-04-29T14:04:29.760Z,46.21
2018-04-29T14:06:55.775Z,46.21
2018-04-29T14:09:21.780Z,46.09
2018-04-29T14:11:58.708Z,46.17
2018-04-29T14:14:24.817Z,46.16
2018-04-29T14:16:50.824Z,46.20
2018-04-29T14:19:16.937Z,46.20
2018-04-29T14:21:42.946Z,46.11
2018-04-29T14:24:09.360Z,46.13
2018-04-29T14:26:35.331Z,46.11
2018-04-29T14:29:01.342Z,46.02
2018-04-29T14:31:27.358Z,46.03
2018-04-29T14:33:53.390Z,45.91
2018-04-29T14:36:19.383Z,45.82
2018-04-29T14:38:45.418Z,45.89
2018-04-29T14:41:11.435Z,45.77
2018-04-29T14:43:37.442Z,45.73
2018-04-29T14:46:03.490Z,45.82
2018-04-29T14:48:29.518Z,45.79
2018-04-29T14:50:55.523Z,45.55
2018-04-29T14:53:21.583Z,45.30
2018-04-29T14:55:47.582Z,45.45
2018-04-29T14:58:13.582Z,45.38
2018-04-29T15:00:39.671Z,45.18
2018-04-29T15:03:05.709Z,45.18
2018-04-29T15:05:31.726Z,44.59
2018-04-29T15:07:57.770Z,44.40
2018-04-29T15:10:23.824Z,44.64
2018-04-29T15:12:50.025Z,44.73
2018-04-29T15:15:16.146Z,45.16
2018-04-29T15:17:42.191Z,45.25
2018-04-29T15:20:08.175Z,45.32
2018-04-29T15:22:34.194Z,45.48
2018-04-29T15:25:00.237Z,45.63
2018-04-29T15:27:26.243Z,45.81
2018-04-29T15:29:52.244Z,45.97
2018-04-29T15:32:18.386Z,46.22
2018-04-29T15:34:44.857Z,46.78
2018-04-29T15:37:10.897Z,46.56
2018-04-29T15:39:36.929Z,46.90
2018-04-29T15:42:02.911Z,47.50
2018-04-29T15:44:28.956Z,48.52
2018-04-29T15:46:54.965Z,48.34
2018-04-29T15:49:21.102Z,48.62
2018-04-29T15:51:47.140Z,48.83
2018-04-29T15:54:13.135Z,48.91
2018-04-29T15:56:39.152Z,48.69
2018-04-29T15:59:05.260Z,48.71
2018-04-29T16:01:31.648Z,48.72
2018-04-29T16:03:58.077Z,48.65
2018-04-29T16:06:24.088Z,48.45
2018-04-29T16:08:50.138Z,48.37
2018-04-29T16:11:16.126Z,48.09
2018-04-29T16:13:42.128Z,48.02
2018-04-29T16:16:08.154Z,47.77
2018-04-29T16:18:34.196Z,47.61
2018-04-29T16:21:00.214Z,47.40
2018-04-29T16:23:26.220Z,47.40
2018-04-29T16:25:52.249Z,46.91
2018-04-29T16:28:18.329Z,45.93
2018-04-29T16:30:44.298Z,45.95
2018-04-29T16:33:10.344Z,45.97
2018-04-29T16:35:36.421Z,46.22
2018-04-29T16:38:02.437Z,46.35
2018-04-29T16:40:28.611Z,46.58
2018-04-29T16:42:54.624Z,46.73
2018-04-29T16:45:20.642Z,46.76
2018-04-29T16:47:46.662Z,46.93
2018-04-29T16:50:12.691Z,47.34
2018-04-29T16:52:39.594Z,47.47
2018-04-29T16:55:05.595Z,47.69
2018-04-29T16:57:31.643Z,48.06
2018-04-29T16:59:57.687Z,48.11
2018-04-29T17:02:23.700Z,48.14
2018-04-29T17:04:49.707Z,48.31
2018-04-29T17:07:15.757Z,48.63
2018-04-29T17:09:41.768Z,48.92
2018-04-29T17:12:07.811Z,50.57
2018-04-29T17:14:34.124Z,51.16
2018-04-29T17:17:00.198Z,50.65
2018-04-29T17:19:26.214Z,50.06
2018-04-29T17:21:52.324Z,50.31
2018-04-29T17:24:18.345Z,50.21
2018-04-29T17:26:44.378Z,50.37
2018-04-29T17:29:10.520Z,49.94
2018-04-29T17:31:36.396Z,49.94
2018-04-29T17:34:02.415Z,49.30
2018-04-29T17:36:28.448Z,49.29
2018-04-29T17:38:54.449Z,49.12
2018-04-29T17:41:20.594Z,49.12
2018-04-29T17:43:46.597Z,49.24
2018-04-29T17:46:12.607Z,49.63
2018-04-29T17:48:38.655Z,49.21
2018-04-29T17:51:05.012Z,49.49
2018-04-29T17:53:31.231Z,48.82
2018-04-29T17:55:57.273Z,48.83
2018-04-29T17:58:23.279Z,48.92
2018-04-29T18:00:49.342Z,49.40
2018-04-29T18:03:15.365Z,49.25
2018-04-29T18:05:41.343Z,49.36
2018-04-29T18:08:07.393Z,48.97
2018-04-29T18:10:33.408Z,48.83
2018-04-29T18:12:59.415Z,48.63
2018-04-29T18:15:25.459Z,48.89
2018-04-29T18:17:51.589Z,48.81
2018-04-29T18:20:17.859Z,48.67
2018-04-29T18:22:43.864Z,48.47
2018-04-29T18:25:09.879Z,48.44
2018-04-29T18:27:36.080Z,48.47
2018-04-29T18:30:02.049Z,48.45
2018-04-29T18:32:28.204Z,48.60
2018-04-29T18:34:54.208Z,48.66
2018-04-29T18:37:20.236Z,48.55
2018-04-29T18:39:46.242Z,48.74
2018-04-29T18:42:12.260Z,48.51
2018-04-29T18:44:38.315Z,48.88
2018-04-29T18:47:04.317Z,48.83
2018-04-29T18:49:30.337Z,48.62
2018-04-29T18:51:56.382Z,49.25
2018-04-29T18:54:22.440Z,49.82
2018-04-29T18:56:48.623Z,50.50
2018-04-29T18:59:14.674Z,50.61
2018-04-29T19:01:40.722Z,51.06
2018-04-29T19:04:10.319Z,50.60
2018-04-29T19:06:36.402Z,49.81
2018-04-29T19:09:02.421Z,49.67
2018-04-29T19:11:28.431Z,49.80
2018-04-29T19:13:54.776Z,51.01
2018-04-29T19:16:21.584Z,49.90
2018-04-29T19:18:47.616Z,51.02
2018-04-29T19:21:14.179Z,50.88
2018-04-29T19:23:40.866Z,50.68
2018-04-29T19:26:06.908Z,50.25
2018-04-29T19:28:32.889Z,50.54
2018-04-29T19:30:58.912Z,49.88
2018-04-29T19:33:24.921Z,50.15
2018-04-29T19:35:50.933Z,49.89
2018-04-29T19:38:17.034Z,50.23
2018-04-29T19:40:43.072Z,49.96
2018-04-29T19:43:09.270Z,50.55
2018-04-29T19:45:35.246Z,50.77
2018-04-29T19:48:01.309Z,50.88
2018-04-29T19:50:27.321Z,50.70
2018-04-29T19:52:53.572Z,50.65
2018-04-29T19:55:27.711Z,50.67
2018-04-29T19:57:54.329Z,50.52
2018-04-29T20:00:20.384Z,50.24
2018-04-29T20:02:46.426Z,49.94
2018-04-29T20:05:12.446Z,49.95
2018-04-29T20:07:38.511Z,49.89
2018-04-29T20:10:04.828Z,50.17
2018-04-29T20:12:31.908Z,50.28
2018-04-29T20:14:57.954Z,49.95
2018-04-29T20:17:23.941Z,50.54
2018-04-29T20:19:49.942Z,49.92
2018-04-29T20:22:16.030Z,50.28
2018-04-29T20:24:42.090Z,50.27
2018-04-29T20:27:08.094Z,50.17
2018-04-29T20:29:34.093Z,49.92
2018-04-29T20:32:00.116Z,50.16
2018-04-29T20:34:26.121Z,49.78
2018-04-29T20:36:52.133Z,50.17
2018-04-29T20:39:18.136Z,49.91
2018-04-29T20:41:44.146Z,49.98
2018-04-29T20:44:10.147Z,49.91
2018-04-29T20:46:36.154Z,49.94
2018-04-29T20:49:02.178Z,49.90
2018-04-29T20:51:28.184Z,50.21
2018-04-29T20:53:54.187Z,49.89
2018-04-29T20:56:20.231Z,50.24
2018-04-29T20:58:46.205Z,50.25
2018-04-29T21:01:12.211Z,50.28
2018-04-29T21:03:38.221Z,50.21
2018-04-29T21:06:04.230Z,49.98
2018-04-29T21:08:30.234Z,50.03
2018-04-29T21:10:56.254Z,49.86
2018-04-29T21:13:22.259Z,49.91
2018-04-29T21:15:48.267Z,49.83
2018-04-29T21:18:14.266Z,49.48
2018-04-29T21:20:40.276Z,49.33
2018-04-29T21:23:06.282Z,49.60
2018-04-29T21:25:32.283Z,49.28
2018-04-29T21:27:58.293Z,49.26
2018-04-29T21:30:24.306Z,49.38
2018-04-29T21:32:50.323Z,49.41
2018-04-29T21:35:16.325Z,49.27
2018-04-29T21:37:42.328Z,49.35
2018-04-29T21:40:08.365Z,49.08
2018-04-29T21:42:34.370Z,49.16
2018-04-29T21:45:00.407Z,49.27
2018-04-29T21:47:26.377Z,49.17
2018-04-29T21:49:52.419Z,49.14
2018-04-29T21:52:18.450Z,49.04
2018-04-29T21:54:44.418Z,49.10
2018-04-29T21:57:10.433Z,49.10
2018-04-29T21:59:36.470Z,49.03
2018-04-29T22:02:02.449Z,49.09
2018-04-29T22:04:28.458Z,49.20
2018-04-29T22:06:54.491Z,49.01
2018-04-29T22:09:20.494Z,48.95
2018-04-29T22:11:46.499Z,49.11
2018-04-29T22:14:12.534Z,49.08
2018-04-29T22:16:38.506Z,48.93
2018-04-29T22:19:04.514Z,49.13
2018-04-29T22:21:30.526Z,49.01
2018-04-29T22:23:56.529Z,49.11
2018-04-29T22:26:22.535Z,48.79
2018-04-29T22:28:48.546Z,49.03
2018-04-29T22:31:14.541Z,48.97
2018-04-29T22:33:40.549Z,48.95
2018-04-29T22:36:06.586Z,48.89
2018-04-29T22:38:32.560Z,48.96
2018-04-29T22:40:58.561Z,48.78
2018-04-29T22:43:24.597Z,48.97
2018-04-29T22:45:50.605Z,48.95
2018-04-29T22:48:16.610Z,48.89
2018-04-29T22:50:42.613Z,48.90
2018-04-29T22:53:08.628Z,48.75
2018-04-29T22:55:34.638Z,48.88
2018-04-29T22:58:00.644Z,48.84
2018-04-29T23:00:26.649Z,48.79
2018-04-29T23:02:52.660Z,48.71
2018-04-29T23:05:18.670Z,48.70
2018-04-29T23:07:44.713Z,48.65
2018-04-29T23:10:10.705Z,48.74
2018-04-29T23:12:36.710Z,48.58
2018-04-29T23:15:02.682Z,48.68
2018-04-29T23:17:28.695Z,48.58
2018-04-29T23:19:54.711Z,48.66
2018-04-29T23:22:20.757Z,48.59
2018-04-29T23:24:46.790Z,48.54
2018-04-29T23:27:12.793Z,48.59
2018-04-29T23:29:38.792Z,48.59
2018-04-29T23:32:04.796Z,48.48
2018-04-29T23:34:30.882Z,48.45
2018-04-29T23:36:56.859Z,48.43
2018-04-29T23:39:22.877Z,48.42
2018-04-29T23:41:48.883Z,48.40
2018-04-29T23:44:14.895Z,48.39
2018-04-29T23:46:40.903Z,48.39
2018-04-29T23:49:06.904Z,48.41
2018-04-29T23:51:32.940Z,48.40
2018-04-29T23:53:58.947Z,48.38
2018-04-29T23:56:24.978Z,48.32
2018-04-29T23:58:50.977Z,48.30
